»·PEaware :: N250EF KBUR-KSBA

N250EF :: KBUR-KSBA

FLIGHT INFORMATION

Flight Status: Arrived
Operator: Privately registered:
United States
More flights under this callsign
Pilot: Patrice R. (32329)
Aircraft: BEECH AIRCRAFT PREMIER
(PRM1)
More flights by this aircraft type
Origin: KBUR Bob Hope-Burbank
United States
Destination: KSBA Santa Barbara Mun
United States
More flights between these airports :: More routes between these airports
Route:
File this flight plan on PilotEdge
Remarks:
Altitude:
(Current/Filed)
14,500ft
Speed:
(Current/Filed)
0kts
Departed: 10-Feb-22 11:03 PM
Arrived: 10-Feb-22 11:33 PM
Distance/Time
Traveled:
75nm/0:30
Distance/Time
To Go:
Arrived

Flight Plot

Page will automatically refresh every two minutes.


Map Options




Map Legend


Flown Route
Filed Route
Departure Airport
Arrival Airport
Navaid (VOR, NDB)
Fix

Horizontal Profiles

Position Reports

Time Latitude Longitude Heading Altitude Ground
Speed
10-Feb-22 22:37 34.194290 -118.354890 235 700ft 0kts
10-Feb-22 22:38 34.194290 -118.354890 235 700ft 0kts
10-Feb-22 22:39 34.194290 -118.354890 235 700ft 0kts
10-Feb-22 22:40 34.194290 -118.354890 235 700ft 0kts
10-Feb-22 22:41 34.194290 -118.354890 235 700ft 0kts
10-Feb-22 22:42 34.194290 -118.354890 235 700ft 0kts
10-Feb-22 22:43 34.194290 -118.354890 235 700ft 0kts
10-Feb-22 22:44 34.194290 -118.354890 235 700ft 0kts
10-Feb-22 22:45 34.194290 -118.354890 235 700ft 0kts
10-Feb-22 22:46 34.195388 -118.355417 352 704ft 11kts
10-Feb-22 22:47 34.198160 -118.355404 353 709ft 14kts
10-Feb-22 22:48 34.202884 -118.356529 346 726ft 18kts
10-Feb-22 22:49 34.207799 -118.357857 345 750ft 15kts
10-Feb-22 22:50 34.211626 -118.359177 308 766ft 0kts
10-Feb-22 22:51 34.211626 -118.359177 308 766ft 0kts
10-Feb-22 22:52 34.211626 -118.359177 308 766ft 0kts
10-Feb-22 22:53 34.211626 -118.359177 308 766ft 0kts
10-Feb-22 22:54 34.211626 -118.359177 308 766ft 0kts
10-Feb-22 22:55 34.211626 -118.359177 308 766ft 0kts
10-Feb-22 22:56 34.211626 -118.359177 308 766ft 0kts
10-Feb-22 22:57 34.211626 -118.359177 308 766ft 0kts
10-Feb-22 22:58 34.211626 -118.359177 308 766ft 0kts
10-Feb-22 22:59 34.211626 -118.359177 308 766ft 0kts
10-Feb-22 23:00 34.211626 -118.359177 308 766ft 0kts
10-Feb-22 23:01 34.211626 -118.359177 308 766ft 0kts
10-Feb-22 23:02 34.206848 -118.358969 166 747ft 98kts
10-Feb-22 23:03 34.163175 -118.352830 177 1876ft 182kts
10-Feb-22 23:04 34.122432 -118.390329 252 3024ft 211kts
10-Feb-22 23:05 34.100708 -118.458095 249 4155ft 204kts
10-Feb-22 23:06 34.083405 -118.519411 273 6024ft 185kts
10-Feb-22 23:07 34.086165 -118.584358 275 7211ft 205kts
10-Feb-22 23:08 34.084877 -118.654154 249 8230ft 214kts
10-Feb-22 23:09 34.058321 -118.719079 243 9234ft 217kts
10-Feb-22 23:10 34.045220 -118.786309 287 10251ft 209kts
10-Feb-22 23:11 34.062595 -118.852848 290 11252ft 208kts
10-Feb-22 23:12 34.080240 -118.918756 290 12250ft 206kts
10-Feb-22 23:13 34.097593 -118.983892 290 13249ft 202kts
10-Feb-22 23:14 34.115252 -119.047353 301 14244ft 196kts
10-Feb-22 23:15 34.145932 -119.105326 305 14521ft 219kts
10-Feb-22 23:16 34.180626 -119.168649 305 14513ft 230kts
10-Feb-22 23:17 34.216284 -119.233497 305 14510ft 233kts
10-Feb-22 23:18 34.252134 -119.298775 305 14509ft 233kts
10-Feb-22 23:19 34.287992 -119.364124 305 14509ft 234kts
10-Feb-22 23:20 34.323800 -119.429604 305 14507ft 234kts
10-Feb-22 23:21 34.359679 -119.495317 305 14504ft 234kts
10-Feb-22 23:22 34.395606 -119.561238 305 14500ft 234kts
10-Feb-22 23:23 34.432484 -119.628998 305 13616ft 262kts
10-Feb-22 23:24 34.473822 -119.705148 304 11645ft 276kts
10-Feb-22 23:25 34.502116 -119.788737 260 9683ft 280kts
10-Feb-22 23:26 34.473717 -119.875828 248 7715ft 273kts
10-Feb-22 23:27 34.444911 -119.959931 248 5711ft 267kts
10-Feb-22 23:28 34.394779 -119.991096 123 4032ft 214kts
10-Feb-22 23:29 34.410665 -119.938493 54 2231ft 153kts
10-Feb-22 23:30 34.426216 -119.896622 78 770ft 123kts
10-Feb-22 23:31 34.427449 -119.855547 86 43ft 120kts
10-Feb-22 23:32 34.427252 -119.835312 178 13ft 6kts
10-Feb-22 23:33 34.426721 -119.837728 266 13ft 10kts
10-Feb-22 23:34 34.424015 -119.837526 165 15ft 12kts
10-Feb-22 23:35 34.420374 -119.836490 165 16ft 12kts
10-Feb-22 23:36 34.421447 -119.836260 346 16ft 10kts
10-Feb-22 23:37 34.423021 -119.836067 270 13ft 0kts
10-Feb-22 23:38 34.423021 -119.836067 270 13ft 0kts
10-Feb-22 23:39 34.423021 -119.836067 270 13ft 0kts
10-Feb-22 23:40 34.416976 -120.000902 186 4482ft 260kts
10-Feb-22 23:41 34.427291 -119.862548 86 123ft 121kts
10-Feb-22 23:42 34.422762 -119.910898 65 1248ft 135kts
10-Feb-22 23:43 34.427149 -119.869600 86 217ft 121kts
10-Feb-22 23:44 34.427961 -119.836426 79 13ft 26kts

Navigation Log

Ident Type
Flight plan parsing failed, navigation log unavailable